createdAt,value
2022-10-31T00:01:30.851Z,26.93
2022-10-31T00:03:58.093Z,26.13
2022-10-31T00:06:25.631Z,25.10
2022-10-31T00:08:59.836Z,25.93
2022-10-31T00:11:27.311Z,26.33
2022-10-31T00:13:54.986Z,27.47
2022-10-31T00:16:23.221Z,26.10
2022-10-31T00:18:50.933Z,25.63
2022-10-31T00:21:18.138Z,24.73
2022-10-31T00:23:45.465Z,26.10
2022-10-31T00:26:12.566Z,26.33
2022-10-31T00:28:39.834Z,27.17
2022-10-31T00:31:08.221Z,27.60
2022-10-31T00:33:39.508Z,27.00
2022-10-31T00:36:07.538Z,27.13
2022-10-31T00:38:34.965Z,26.90
2022-10-31T00:41:02.070Z,27.73
2022-10-31T00:43:29.260Z,27.87
2022-10-31T00:45:56.518Z,27.93
2022-10-31T00:48:23.596Z,27.73
2022-10-31T00:50:50.700Z,27.63
2022-10-31T00:53:17.839Z,28.20
2022-10-31T00:55:45.004Z,28.33
2022-10-31T00:58:12.176Z,29.73
2022-10-31T01:00:39.334Z,28.30
2022-10-31T01:03:06.433Z,28.30
2022-10-31T01:05:33.592Z,28.43
2022-10-31T01:08:00.995Z,30.00
2022-10-31T01:10:28.137Z,29.43
2022-10-31T01:12:55.244Z,28.43
2022-10-31T01:15:23.023Z,27.40
2022-10-31T01:17:50.483Z,28.50
2022-10-31T01:20:17.893Z,28.77
2022-10-31T01:22:45.472Z,29.13
2022-10-31T01:25:13.578Z,28.60
2022-10-31T01:27:41.296Z,29.67
2022-10-31T01:30:09.300Z,29.57
2022-10-31T01:32:37.169Z,30.60
2022-10-31T01:35:04.865Z,29.97
2022-10-31T01:37:33.319Z,28.73
2022-10-31T01:40:00.492Z,28.83
2022-10-31T01:42:27.584Z,27.37
2022-10-31T01:44:56.653Z,28.90
2022-10-31T01:47:29.319Z,26.73
2022-10-31T01:49:58.443Z,27.83
2022-10-31T01:52:26.588Z,27.40
2022-10-31T01:54:56.362Z,27.40
2022-10-31T01:57:23.696Z,27.87
2022-10-31T01:59:53.005Z,27.70
2022-10-31T02:02:20.705Z,27.70
2022-10-31T02:04:49.108Z,28.27
2022-10-31T02:07:27.589Z,26.80
2022-10-31T02:09:55.527Z,28.43
2022-10-31T02:12:23.106Z,27.20
2022-10-31T02:14:50.200Z,27.93
2022-10-31T02:17:17.351Z,28.67
2022-10-31T02:20:03.114Z,28.83
2022-10-31T02:22:30.224Z,29.30
2022-10-31T02:25:04.404Z,31.30
2022-10-31T02:27:37.829Z,33.17
2022-10-31T02:30:07.029Z,33.53
2022-10-31T02:32:45.021Z,32.43
2022-10-31T02:35:12.199Z,29.70
2022-10-31T02:37:43.390Z,29.13
2022-10-31T02:40:20.250Z,27.17
2022-10-31T02:42:53.411Z,30.17
2022-10-31T02:45:28.602Z,28.57
2022-10-31T02:47:58.135Z,29.90
2022-10-31T02:50:29.035Z,28.77
2022-10-31T02:52:56.185Z,29.27
2022-10-31T02:55:26.354Z,29.60
2022-10-31T02:57:56.003Z,30.57
2022-10-31T03:00:23.383Z,29.43
2022-10-31T03:02:58.277Z,30.73
2022-10-31T03:05:34.394Z,31.57
2022-10-31T03:08:10.308Z,31.20
2022-10-31T03:10:40.161Z,31.83
2022-10-31T03:13:11.011Z,32.10
2022-10-31T03:15:45.113Z,31.13
2022-10-31T03:18:19.610Z,30.07
2022-10-31T03:20:52.314Z,29.80
2022-10-31T03:23:20.814Z,30.17
2022-10-31T03:25:48.505Z,29.60
2022-10-31T03:30:45.698Z,29.43
2022-10-31T03:33:16.655Z,29.77
2022-10-31T03:35:46.061Z,30.27
2022-10-31T03:38:13.439Z,29.50
2022-10-31T03:40:42.705Z,27.70
2022-10-31T03:43:12.487Z,29.10
2022-10-31T03:45:43.239Z,28.20
2022-10-31T03:48:10.565Z,27.43
2022-10-31T03:50:41.112Z,27.47
2022-10-31T03:53:12.675Z,26.90
2022-10-31T03:55:42.311Z,26.60
2022-10-31T03:58:14.165Z,24.87
2022-10-31T04:00:42.615Z,27.27
2022-10-31T04:03:28.944Z,26.50
2022-10-31T04:05:58.504Z,26.57
2022-10-31T04:08:28.142Z,28.13
2022-10-31T04:10:56.083Z,28.87
2022-10-31T04:13:26.153Z,28.80
2022-10-31T04:15:54.086Z,28.00
2022-10-31T04:18:21.267Z,27.60
2022-10-31T04:20:51.798Z,27.93
2022-10-31T04:23:18.947Z,25.77
2022-10-31T04:25:46.100Z,27.77
2022-10-31T04:28:13.243Z,29.53
2022-10-31T04:30:40.395Z,27.43
2022-10-31T04:33:07.499Z,27.03
2022-10-31T04:35:34.584Z,27.07
2022-10-31T04:38:01.686Z,28.07
2022-10-31T04:40:28.900Z,27.00
2022-10-31T04:42:56.018Z,26.10
2022-10-31T04:45:23.119Z,26.17
2022-10-31T04:47:50.205Z,23.30
2022-10-31T04:50:17.361Z,24.17
2022-10-31T04:52:45.169Z,24.13
2022-10-31T04:55:12.920Z,25.33
2022-10-31T04:57:43.503Z,24.87
2022-10-31T05:00:11.675Z,25.07
2022-10-31T05:02:45.759Z,25.40
2022-10-31T05:05:13.393Z,26.00
2022-10-31T05:07:44.399Z,26.43
2022-10-31T05:10:12.608Z,25.27
2022-10-31T05:12:40.025Z,27.50
2022-10-31T05:15:07.413Z,27.93
2022-10-31T05:17:34.564Z,26.07
2022-10-31T05:20:01.770Z,25.80
2022-10-31T05:22:28.868Z,25.23
2022-10-31T05:24:55.983Z,27.30
2022-10-31T05:27:23.231Z,25.37
2022-10-31T05:29:50.361Z,24.50
2022-10-31T05:32:17.562Z,27.20
2022-10-31T05:34:44.665Z,25.13
2022-10-31T05:37:11.789Z,24.00
2022-10-31T05:39:38.889Z,21.80
2022-10-31T05:42:06.014Z,22.20
2022-10-31T05:44:33.238Z,22.83
2022-10-31T05:47:00.319Z,23.10
2022-10-31T05:49:27.402Z,20.83
2022-10-31T05:51:54.969Z,21.67
2022-10-31T05:54:22.141Z,21.10
2022-10-31T05:56:49.322Z,20.37
2022-10-31T05:59:16.413Z,20.63
2022-10-31T06:01:43.569Z,19.73
2022-10-31T06:04:10.762Z,19.70
2022-10-31T06:06:37.862Z,18.63
2022-10-31T06:09:05.061Z,19.67
2022-10-31T06:11:32.136Z,19.20
2022-10-31T06:13:59.283Z,18.80
2022-10-31T06:16:26.414Z,19.60
2022-10-31T06:18:53.511Z,20.33
2022-10-31T06:21:20.630Z,20.17
2022-10-31T06:23:47.785Z,20.93
2022-10-31T06:26:15.101Z,20.47
2022-10-31T06:28:42.214Z,20.13
2022-10-31T06:31:09.319Z,19.83
2022-10-31T06:33:36.461Z,20.27
2022-10-31T06:36:03.843Z,19.87
2022-10-31T06:38:30.960Z,20.90
2022-10-31T06:40:58.114Z,20.57
2022-10-31T06:43:25.267Z,20.20
2022-10-31T06:45:52.384Z,20.27
2022-10-31T06:48:19.856Z,20.10
2022-10-31T06:50:47.275Z,20.63
2022-10-31T06:53:15.274Z,21.10
2022-10-31T06:55:43.055Z,23.77
2022-10-31T06:58:11.245Z,22.87
2022-10-31T07:00:38.719Z,24.60
2022-10-31T07:03:07.087Z,27.93
2022-10-31T07:05:34.251Z,24.10
2022-10-31T07:08:03.272Z,23.33
2022-10-31T07:10:34.385Z,23.27
2022-10-31T07:13:05.963Z,23.83
2022-10-31T07:15:37.519Z,19.80
2022-10-31T07:18:05.498Z,23.17
2022-10-31T07:20:33.041Z,20.47
2022-10-31T07:23:01.532Z,20.83
2022-10-31T07:25:29.125Z,21.13
2022-10-31T07:27:56.956Z,20.97
2022-10-31T07:30:24.398Z,22.23
2022-10-31T07:32:52.396Z,21.20
2022-10-31T07:35:29.308Z,19.07
2022-10-31T07:37:57.053Z,20.30
2022-10-31T07:40:25.253Z,19.27
2022-10-31T07:42:53.395Z,18.43
2022-10-31T07:45:21.431Z,19.23
2022-10-31T07:47:52.729Z,18.47
2022-10-31T07:50:30.712Z,19.23
2022-10-31T07:53:00.934Z,19.57
2022-10-31T07:55:28.592Z,21.33
2022-10-31T07:57:59.047Z,20.23
2022-10-31T08:00:26.821Z,21.00
2022-10-31T08:03:01.692Z,19.60
2022-10-31T08:05:29.269Z,20.33
2022-10-31T08:07:56.517Z,19.53
2022-10-31T08:10:24.106Z,18.43
2022-10-31T08:12:58.752Z,18.67
2022-10-31T08:15:26.215Z,19.50
2022-10-31T08:17:53.590Z,18.73
2022-10-31T08:20:21.118Z,18.50
2022-10-31T08:23:14.829Z,19.23
2022-10-31T08:25:43.242Z,18.90
2022-10-31T08:28:12.123Z,19.20
2022-10-31T08:30:39.990Z,19.20
2022-10-31T08:33:08.563Z,18.13
2022-10-31T08:35:35.796Z,20.03
2022-10-31T08:38:03.666Z,17.90
2022-10-31T08:40:33.180Z,18.10
2022-10-31T08:43:01.370Z,16.90
2022-10-31T08:45:28.847Z,17.57
2022-10-31T08:48:03.353Z,18.97
2022-10-31T08:50:31.518Z,16.50
2022-10-31T08:53:06.384Z,16.37
2022-10-31T08:55:37.065Z,16.37
2022-10-31T08:58:05.220Z,16.20
2022-10-31T09:00:32.977Z,16.07
2022-10-31T09:03:01.079Z,16.97
2022-10-31T09:05:28.868Z,16.73
2022-10-31T09:08:03.604Z,17.00
2022-10-31T09:10:31.494Z,17.10
2022-10-31T09:13:07.535Z,15.00
2022-10-31T09:15:36.039Z,15.57
2022-10-31T09:18:03.442Z,14.80
2022-10-31T09:20:31.001Z,14.00
2022-10-31T09:22:59.557Z,13.97
2022-10-31T09:25:27.069Z,13.20
2022-10-31T09:27:58.157Z,12.43
2022-10-31T09:30:26.612Z,12.23
2022-10-31T09:33:07.202Z,11.13
2022-10-31T09:35:34.642Z,11.70
2022-10-31T09:38:03.185Z,11.10
2022-10-31T09:40:33.241Z,10.73
2022-10-31T09:43:15.469Z,11.47
2022-10-31T09:45:49.495Z,10.97
2022-10-31T09:48:19.489Z,10.93
2022-10-31T09:50:59.419Z,9.57
2022-10-31T09:53:29.413Z,9.97
2022-10-31T09:55:56.771Z,11.23
2022-10-31T09:58:27.877Z,10.93
2022-10-31T10:00:56.141Z,11.57
2022-10-31T10:03:49.291Z,11.57
2022-10-31T10:06:16.364Z,12.07
2022-10-31T10:08:43.587Z,12.03
2022-10-31T10:11:22.773Z,12.07
2022-10-31T10:14:08.985Z,11.27
2022-10-31T10:16:38.890Z,12.20
2022-10-31T10:19:08.921Z,11.40
2022-10-31T10:21:45.623Z,11.03
2022-10-31T10:24:24.641Z,10.87
2022-10-31T10:26:57.686Z,10.03
2022-10-31T10:29:24.767Z,9.67
2022-10-31T10:31:53.437Z,8.80
2022-10-31T10:34:26.201Z,8.47
2022-10-31T10:36:53.264Z,7.83
2022-10-31T10:39:22.549Z,8.60
2022-10-31T10:42:09.575Z,8.37
2022-10-31T10:45:00.125Z,6.97
2022-10-31T10:47:38.197Z,7.80
2022-10-31T10:50:12.703Z,6.33
2022-10-31T10:52:50.793Z,6.73
2022-10-31T10:55:23.599Z,7.00
2022-10-31T10:57:51.252Z,6.03
2022-10-31T11:00:18.345Z,6.30
2022-10-31T11:02:48.886Z,5.77
2022-10-31T11:05:29.766Z,6.13
2022-10-31T11:07:57.055Z,6.03
2022-10-31T11:10:24.224Z,5.70
2022-10-31T11:13:10.058Z,5.50
2022-10-31T11:15:39.591Z,5.23
2022-10-31T11:18:06.858Z,5.00
2022-10-31T11:20:35.737Z,5.57
2022-10-31T11:23:15.783Z,4.83
2022-10-31T11:25:49.489Z,4.70
2022-10-31T11:28:16.640Z,5.00
2022-10-31T11:30:45.267Z,4.37
2022-10-31T11:33:20.746Z,4.50
2022-10-31T11:35:50.985Z,4.50
2022-10-31T11:38:21.791Z,4.47
2022-10-31T11:41:00.131Z,4.10
2022-10-31T11:43:28.405Z,4.27
2022-10-31T11:45:55.697Z,3.83
2022-10-31T11:48:24.886Z,3.50
2022-10-31T11:50:53.441Z,3.20
2022-10-31T11:53:22.942Z,3.40
2022-10-31T11:56:01.554Z,3.50
2022-10-31T11:58:28.772Z,3.60
2022-10-31T12:00:57.013Z,3.80
2022-10-31T12:03:24.143Z,3.50
2022-10-31T12:06:12.985Z,3.10
2022-10-31T12:08:41.294Z,3.40
2022-10-31T12:11:29.335Z,2.97
2022-10-31T12:14:15.162Z,3.20
2022-10-31T12:16:53.880Z,2.83
2022-10-31T12:19:26.878Z,3.07
2022-10-31T12:22:00.407Z,3.37
2022-10-31T12:24:42.456Z,3.10
2022-10-31T12:27:21.692Z,3.33
2022-10-31T12:30:12.092Z,3.63
2022-10-31T12:32:43.851Z,3.90
2022-10-31T12:35:10.915Z,3.37
2022-10-31T12:37:38.117Z,3.63
2022-10-31T12:40:05.206Z,3.43
2022-10-31T12:42:32.315Z,3.37
2022-10-31T12:45:11.712Z,3.30
2022-10-31T12:47:54.107Z,3.17
2022-10-31T12:50:27.343Z,3.00
2022-10-31T12:52:58.671Z,3.27
2022-10-31T12:55:25.982Z,3.43
2022-10-31T12:57:56.073Z,3.27
2022-10-31T13:00:26.549Z,3.50
2022-10-31T13:03:15.589Z,3.30
2022-10-31T13:05:44.043Z,3.70
2022-10-31T13:08:11.138Z,3.80
2022-10-31T13:10:46.556Z,3.60
2022-10-31T13:13:17.786Z,3.90
2022-10-31T13:15:57.534Z,4.13
2022-10-31T13:18:36.843Z,4.03
2022-10-31T13:21:07.119Z,4.43
2022-10-31T13:23:51.778Z,5.10
2022-10-31T13:26:33.683Z,4.40
2022-10-31T13:29:19.005Z,4.83
2022-10-31T13:31:46.289Z,5.17
2022-10-31T13:34:33.642Z,5.20
2022-10-31T13:37:03.886Z,5.47
2022-10-31T13:39:36.851Z,5.13
2022-10-31T13:42:17.455Z,5.10
2022-10-31T13:44:44.609Z,5.20
2022-10-31T13:47:30.905Z,5.00
2022-10-31T13:50:08.643Z,4.90
2022-10-31T13:52:35.858Z,4.90
2022-10-31T13:55:02.956Z,5.40
2022-10-31T13:57:45.698Z,4.90
2022-10-31T14:00:21.789Z,4.30
2022-10-31T14:02:50.343Z,5.10
2022-10-31T14:05:25.523Z,4.73
2022-10-31T14:07:53.838Z,5.17
2022-10-31T14:10:32.617Z,5.83
2022-10-31T14:13:18.861Z,6.23
2022-10-31T14:16:00.896Z,7.20
2022-10-31T14:18:33.037Z,7.13
2022-10-31T14:21:00.177Z,6.73
2022-10-31T14:23:27.277Z,7.27
2022-10-31T14:25:54.452Z,6.87
2022-10-31T14:28:34.846Z,10.07
2022-10-31T14:31:02.267Z,5.50
2022-10-31T14:33:30.319Z,7.43
2022-10-31T14:35:57.464Z,7.97
2022-10-31T14:38:36.932Z,6.20
2022-10-31T14:41:07.009Z,5.40
2022-10-31T14:44:03.173Z,7.03
2022-10-31T14:46:53.500Z,5.60
2022-10-31T14:49:43.862Z,6.17
2022-10-31T14:52:14.589Z,5.17
2022-10-31T14:54:43.513Z,6.27
2022-10-31T14:57:18.276Z,7.17
2022-10-31T14:59:49.909Z,5.87
2022-10-31T15:02:37.947Z,6.07
2022-10-31T15:05:14.160Z,5.50
2022-10-31T15:07:52.314Z,5.60
2022-10-31T15:10:27.456Z,6.20
2022-10-31T15:12:54.766Z,6.93
2022-10-31T15:15:23.485Z,8.30
2022-10-31T15:17:52.967Z,7.73
2022-10-31T15:20:22.243Z,7.03
2022-10-31T15:22:49.913Z,7.23
2022-10-31T15:25:21.253Z,6.47
2022-10-31T15:27:49.129Z,7.47
2022-10-31T15:30:22.609Z,6.80
2022-10-31T15:32:57.532Z,7.80
2022-10-31T15:35:29.683Z,7.13
2022-10-31T15:37:58.232Z,7.53
2022-10-31T15:40:26.633Z,10.53
2022-10-31T15:43:03.947Z,11.07
2022-10-31T15:45:31.712Z,11.10
2022-10-31T15:48:00.259Z,14.50
2022-10-31T15:50:39.157Z,9.40
2022-10-31T15:53:07.477Z,10.23
2022-10-31T15:55:38.289Z,16.07
2022-10-31T15:58:12.269Z,18.23
2022-10-31T16:00:39.823Z,15.40
2022-10-31T16:03:15.951Z,13.03
2022-10-31T16:05:45.922Z,13.00
2022-10-31T16:08:31.475Z,15.67
2022-10-31T16:10:58.571Z,12.87
2022-10-31T16:13:28.699Z,11.10
2022-10-31T16:16:21.269Z,12.07
2022-10-31T16:18:45.487Z,12.07
2022-10-31T16:21:13.051Z,13.63
2022-10-31T16:23:45.402Z,12.13
2022-10-31T16:26:15.932Z,11.47
2022-10-31T16:28:52.165Z,11.73
2022-10-31T16:31:27.891Z,12.33
2022-10-31T16:34:03.353Z,11.80
2022-10-31T16:36:36.458Z,12.60
2022-10-31T16:39:04.518Z,12.63
2022-10-31T16:41:31.673Z,11.53
2022-10-31T16:43:58.855Z,12.27
2022-10-31T16:46:27.292Z,13.77
2022-10-31T16:48:54.812Z,10.97
2022-10-31T16:51:22.061Z,11.83
2022-10-31T16:53:49.210Z,11.47
2022-10-31T16:56:18.099Z,10.37
2022-10-31T16:58:46.035Z,11.77
2022-10-31T17:01:14.430Z,11.17
2022-10-31T17:03:41.633Z,10.47
2022-10-31T17:06:12.395Z,11.10
2022-10-31T17:08:39.528Z,10.00
2022-10-31T17:11:06.873Z,10.83
2022-10-31T17:13:35.262Z,10.10
2022-10-31T17:16:03.293Z,13.40
2022-10-31T17:18:31.026Z,11.00
2022-10-31T17:20:59.871Z,10.93
2022-10-31T17:23:27.801Z,11.10
2022-10-31T17:25:55.004Z,11.40
2022-10-31T17:28:22.146Z,11.97
2022-10-31T17:30:49.278Z,11.87
2022-10-31T17:33:17.576Z,11.37
2022-10-31T17:35:44.984Z,11.63
2022-10-31T17:38:12.585Z,12.60
2022-10-31T17:40:41.606Z,12.40
2022-10-31T17:43:10.008Z,11.53
2022-10-31T17:45:38.936Z,11.63
2022-10-31T17:48:06.239Z,11.80
2022-10-31T17:50:33.455Z,12.63
2022-10-31T17:53:00.953Z,11.23
2022-10-31T17:55:31.474Z,12.00
2022-10-31T17:58:01.447Z,12.10
2022-10-31T18:00:28.543Z,12.00
2022-10-31T18:02:55.688Z,11.67
2022-10-31T18:05:22.827Z,11.93
2022-10-31T18:07:51.068Z,11.60
2022-10-31T18:10:18.221Z,13.68
2022-10-31T18:12:45.553Z,12.33
2022-10-31T18:15:12.776Z,11.47
2022-10-31T18:17:42.135Z,11.93
2022-10-31T18:20:10.205Z,12.07
2022-10-31T18:22:37.615Z,12.00
2022-10-31T18:25:04.949Z,13.60
2022-10-31T18:27:32.231Z,13.90
2022-10-31T18:29:59.357Z,14.83
2022-10-31T18:32:26.519Z,13.67
2022-10-31T18:34:53.857Z,13.93
2022-10-31T18:37:20.988Z,13.37
2022-10-31T18:39:48.136Z,13.77
2022-10-31T18:42:15.250Z,13.27
2022-10-31T18:44:42.350Z,13.30
2022-10-31T18:47:09.492Z,14.60
2022-10-31T18:49:36.738Z,13.60
2022-10-31T18:52:04.816Z,17.25
2022-10-31T18:54:31.945Z,15.40
2022-10-31T18:56:59.044Z,13.27
2022-10-31T18:59:26.161Z,14.90
2022-10-31T19:01:53.465Z,14.00
2022-10-31T19:04:20.765Z,14.13
2022-10-31T19:06:47.849Z,15.37
2022-10-31T19:09:14.952Z,13.53
2022-10-31T19:11:42.074Z,14.30
2022-10-31T19:14:10.970Z,14.50
2022-10-31T19:16:38.169Z,13.00
2022-10-31T19:19:05.388Z,13.87
2022-10-31T19:21:32.500Z,13.30
2022-10-31T19:24:00.286Z,13.50
2022-10-31T19:26:27.808Z,13.77
2022-10-31T19:28:55.760Z,14.60
2022-10-31T19:31:23.440Z,15.70
2022-10-31T19:33:50.677Z,13.47
2022-10-31T19:36:18.810Z,13.50
2022-10-31T19:38:47.017Z,12.80
2022-10-31T19:41:18.293Z,12.77
2022-10-31T19:43:45.523Z,12.63
2022-10-31T19:46:22.059Z,13.40
2022-10-31T19:48:49.688Z,12.70
2022-10-31T19:51:18.650Z,11.60
2022-10-31T19:53:46.190Z,10.87
2022-10-31T19:56:14.512Z,10.63
2022-10-31T19:58:42.078Z,10.57
2022-10-31T20:01:09.320Z,11.87
2022-10-31T20:03:38.786Z,11.30
2022-10-31T20:06:06.205Z,11.23
2022-10-31T20:08:39.700Z,10.23
2022-10-31T20:11:06.893Z,10.63
2022-10-31T20:13:34.498Z,10.23
2022-10-31T20:16:02.933Z,10.63
2022-10-31T20:18:30.450Z,9.97
2022-10-31T20:21:05.222Z,9.93
2022-10-31T20:23:32.992Z,9.67
2022-10-31T20:26:00.212Z,10.50
2022-10-31T20:28:27.791Z,9.77
2022-10-31T20:30:55.060Z,10.07
2022-10-31T20:33:22.306Z,9.47
2022-10-31T20:35:49.517Z,9.43
2022-10-31T20:38:16.723Z,9.50
2022-10-31T20:40:43.857Z,9.63
2022-10-31T20:43:12.009Z,9.07
2022-10-31T20:45:39.199Z,9.03
2022-10-31T20:48:06.452Z,9.20
2022-10-31T20:50:33.622Z,8.20
2022-10-31T20:53:01.667Z,9.10
2022-10-31T20:55:29.018Z,8.23
2022-10-31T20:57:56.182Z,8.70
2022-10-31T21:00:23.320Z,8.40
2022-10-31T21:02:50.442Z,8.60
2022-10-31T21:05:17.580Z,8.50
2022-10-31T21:07:44.739Z,8.83
2022-10-31T21:10:15.106Z,8.60
2022-10-31T21:12:43.282Z,8.00
2022-10-31T21:15:11.062Z,8.00
2022-10-31T21:17:38.413Z,8.70
2022-10-31T21:20:06.767Z,7.87
2022-10-31T21:22:34.260Z,8.10
2022-10-31T21:25:01.537Z,8.10
2022-10-31T21:27:28.730Z,8.70
2022-10-31T21:29:55.818Z,8.93
2022-10-31T21:32:23.025Z,9.33
2022-10-31T21:34:50.350Z,9.50
2022-10-31T21:37:17.534Z,8.30
2022-10-31T21:39:49.638Z,9.00
2022-10-31T21:42:21.315Z,8.10
2022-10-31T21:44:49.063Z,8.43
2022-10-31T21:47:16.243Z,7.40
2022-10-31T21:49:43.402Z,7.37
2022-10-31T21:52:10.700Z,7.17
2022-10-31T21:54:37.822Z,7.80
2022-10-31T21:57:04.995Z,8.30
2022-10-31T21:59:32.108Z,7.60
2022-10-31T22:02:00.847Z,8.37
2022-10-31T22:04:28.876Z,7.40
2022-10-31T22:06:55.999Z,7.53
2022-10-31T22:09:23.757Z,7.40
2022-10-31T22:11:50.880Z,7.37
2022-10-31T22:14:18.121Z,7.27
2022-10-31T22:16:45.278Z,6.80
2022-10-31T22:19:13.343Z,7.73
2022-10-31T22:21:42.415Z,7.13
2022-10-31T22:24:10.317Z,7.00
2022-10-31T22:26:38.317Z,6.80
2022-10-31T22:29:07.320Z,7.00
2022-10-31T22:31:38.126Z,7.43
2022-10-31T22:34:05.319Z,7.07
2022-10-31T22:36:32.611Z,7.13
2022-10-31T22:39:00.078Z,7.53
2022-10-31T22:41:28.839Z,7.47
2022-10-31T22:43:56.323Z,7.33
2022-10-31T22:46:24.814Z,7.13
2022-10-31T22:48:53.261Z,6.73
2022-10-31T22:51:27.827Z,6.83
2022-10-31T22:53:58.410Z,7.60
2022-10-31T22:56:29.905Z,7.27
2022-10-31T22:58:57.093Z,7.37
2022-10-31T23:01:25.610Z,7.20
2022-10-31T23:03:52.997Z,7.27
2022-10-31T23:06:21.372Z,7.10
2022-10-31T23:08:48.897Z,7.53
2022-10-31T23:11:19.080Z,7.77
2022-10-31T23:14:09.237Z,7.20
2022-10-31T23:16:37.521Z,7.10
2022-10-31T23:19:18.148Z,7.00
2022-10-31T23:21:57.106Z,7.03
2022-10-31T23:24:24.887Z,7.17
2022-10-31T23:27:05.745Z,7.10
2022-10-31T23:29:33.283Z,8.10
2022-10-31T23:32:00.771Z,7.73
2022-10-31T23:34:28.196Z,7.43
2022-10-31T23:36:55.408Z,7.67
2022-10-31T23:39:25.111Z,7.83
2022-10-31T23:41:52.493Z,7.70
2022-10-31T23:44:19.658Z,7.47
2022-10-31T23:46:46.750Z,7.60
2022-10-31T23:49:13.918Z,8.07
2022-10-31T23:51:41.194Z,7.60
2022-10-31T23:54:08.445Z,7.67
2022-10-31T23:56:35.765Z,7.47
2022-10-31T23:59:03.146Z,8.53
